Time;durP1;ratioP1;P1;durP2;ratioP2;P2;SDS_P1;SDS_P2;PMS_P1;PMS_P2;Temp;Humidity;BMP_temperature;BMP_pressure;BME280_temperature;BME280_humidity;BME280_pressure;Samples;Min_cycle;Max_cycle;Signal;HPM_P1;HPM_P2
2021/10/25 00:02:22;;;;;;;1.08;0.40;;;;;;;3.93;71.32;97432.78;5075451;28;20055;-69
2021/10/25 00:04:49;;;;;;;0.20;0.20;;;;;;;3.91;71.02;97434.91;5074804;28;20057;-69
2021/10/25 00:07:14;;;;;;;0.32;0.32;;;;;;;3.92;71.18;97431.16;5074937;28;20036;-69
2021/10/25 00:09:40;;;;;;;0.20;0.20;;;;;;;3.93;71.22;97441.78;5075725;28;20060;-68
2021/10/25 00:12:06;;;;;;;0.30;0.30;;;;;;;3.93;71.21;97443.66;5075744;28;20098;-67
2021/10/25 00:14:32;;;;;;;0.20;0.20;;;;;;;3.92;71.12;97447.44;5075521;28;20518;-67
2021/10/25 00:16:58;;;;;;;0.32;0.32;;;;;;;3.90;71.17;97439.53;5075698;28;20161;-70
2021/10/25 00:19:24;;;;;;;0.20;0.20;;;;;;;3.89;71.24;97464.16;5075555;28;20398;-68
2021/10/25 00:21:49;;;;;;;0.20;0.20;;;;;;;3.89;71.24;97461.44;5076003;28;20044;-68
2021/10/25 00:24:16;;;;;;;0.20;0.20;;;;;;;3.89;71.10;97447.88;5075123;28;20112;-68
2021/10/25 00:26:42;;;;;;;0.20;0.20;;;;;;;3.91;71.14;97449.31;5075658;28;20040;-69
2021/10/25 00:29:08;;;;;;;0.20;0.20;;;;;;;3.94;71.05;97445.31;5076790;28;20041;-70
2021/10/25 00:31:33;;;;;;;0.40;0.40;;;;;;;3.96;71.02;97451.34;5076155;28;20455;-70
2021/10/25 00:34:00;;;;;;;0.30;0.30;;;;;;;3.99;70.89;97437.31;5075760;28;20032;-68
2021/10/25 00:36:26;;;;;;;0.20;0.20;;;;;;;4.02;70.93;97445.84;5075570;28;20029;-69
2021/10/25 00:38:51;;;;;;;0.20;0.20;;;;;;;4.03;70.95;97447.53;5075814;28;20094;-69
2021/10/25 00:41:18;;;;;;;0.25;0.20;;;;;;;4.04;70.73;97445.63;5075354;28;20376;-69
2021/10/25 00:43:43;;;;;;;0.22;0.22;;;;;;;4.03;70.89;97450.25;5075364;28;20071;-68
2021/10/25 00:46:10;;;;;;;0.20;0.20;;;;;;;4.00;70.96;97449.84;5075303;28;20475;-69
2021/10/25 00:48:37;;;;;;;0.30;0.30;;;;;;;3.98;71.06;97439.22;5075065;28;20494;-69
2021/10/25 00:51:09;;;;;;;0.20;0.20;;;;;;;3.98;71.11;97451.97;5074385;28;20063;-69
2021/10/25 00:53:35;;;;;;;0.40;0.40;;;;;;;3.97;70.96;97461.97;5075443;28;20032;-69
2021/10/25 00:56:05;;;;;;;0.20;0.20;;;;;;;3.97;71.10;97466.59;5074835;28;20035;-68
2021/10/25 00:58:32;;;;;;;0.20;0.20;;;;;;;3.99;71.10;97464.47;5075320;28;20158;-69
2021/10/25 01:00:58;;;;;;;0.20;0.20;;;;;;;4.02;71.04;97474.91;5074025;28;20039;-67
2021/10/25 01:03:24;;;;;;;0.20;0.20;;;;;;;4.02;70.89;97491.22;5074181;28;20041;-65
2021/10/25 01:05:50;;;;;;;0.20;0.20;;;;;;;3.99;71.12;97491.63;5074223;28;20028;-66
2021/10/25 01:08:16;;;;;;;0.20;0.20;;;;;;;3.97;71.04;97504.63;5074620;28;20032;-65
2021/10/25 01:10:42;;;;;;;0.20;0.20;;;;;;;3.98;71.11;97511.72;5074211;28;20064;-66
2021/10/25 01:13:09;;;;;;;0.20;0.20;;;;;;;4.00;71.06;97504.16;5074121;28;20069;-69
2021/10/25 01:15:35;;;;;;;0.20;0.20;;;;;;;4.04;71.13;97510.81;5074749;28;20121;-68
2021/10/25 01:18:02;;;;;;;0.47;0.40;;;;;;;4.06;71.04;97514.13;5073946;28;20101;-69
2021/10/25 01:20:30;;;;;;;0.28;0.28;;;;;;;4.06;70.98;97514.13;5075157;28;20131;-69
2021/10/25 01:22:56;;;;;;;0.63;0.35;;;;;;;4.08;71.01;97516.63;5075246;28;20032;-67
2021/10/25 01:25:23;;;;;;;0.47;0.30;;;;;;;4.10;71.00;97519.97;5073646;28;20035;-70
2021/10/25 01:27:50;;;;;;;0.20;0.20;;;;;;;4.13;71.04;97522.22;5074354;28;20036;-66
2021/10/25 01:30:16;;;;;;;0.20;0.20;;;;;;;4.12;71.05;97524.13;5073965;28;20040;-68
2021/10/25 01:32:43;;;;;;;0.20;0.20;;;;;;;4.13;70.88;97533.09;5074132;28;20039;-68
2021/10/25 01:35:12;;;;;;;0.20;0.20;;;;;;;4.13;71.06;97542.06;5073815;28;20036;-70
2021/10/25 01:37:38;;;;;;;0.20;0.20;;;;;;;4.10;70.99;97541.69;5074079;28;20468;-69
2021/10/25 01:40:06;;;;;;;0.30;0.30;;;;;;;4.11;70.94;97537.91;5074873;28;20072;-67
2021/10/25 01:42:32;;;;;;;1.55;0.30;;;;;;;4.13;70.99;97552.09;5074480;28;20386;-67
2021/10/25 01:44:58;;;;;;;0.20;0.20;;;;;;;4.14;70.94;97551.88;5073443;28;20051;-65
2021/10/25 01:47:24;;;;;;;0.20;0.20;;;;;;;4.12;71.00;97555.88;5073587;28;20326;-66
2021/10/25 01:49:50;;;;;;;0.20;0.20;;;;;;;4.15;71.06;97569.00;5073958;28;20529;-67
2021/10/25 01:52:16;;;;;;;0.20;0.20;;;;;;;4.14;70.94;97561.91;5073320;28;20044;-65
2021/10/25 01:54:43;;;;;;;0.20;0.20;;;;;;;4.13;70.95;97573.84;5073937;28;20033;-66
2021/10/25 01:57:09;;;;;;;0.20;0.20;;;;;;;4.12;71.06;97578.44;5073727;28;20056;-67
2021/10/25 01:59:35;;;;;;;0.30;0.30;;;;;;;4.15;71.05;97571.72;5073505;28;20090;-67
2021/10/25 02:02:02;;;;;;;0.35;0.35;;;;;;;4.14;70.99;97575.50;5072443;28;20078;-70
2021/10/25 02:04:28;;;;;;;0.22;0.22;;;;;;;4.14;70.96;97570.91;5073782;28;20044;-67
2021/10/25 02:06:54;;;;;;;0.52;0.52;;;;;;;4.14;70.98;97584.47;5074234;28;20032;-69
2021/10/25 02:09:21;;;;;;;0.50;0.50;;;;;;;4.12;71.04;97583.88;5073878;28;20490;-71
2021/10/25 02:11:47;;;;;;;0.20;0.20;;;;;;;4.10;71.12;97579.72;5073797;28;20032;-69
2021/10/25 02:14:14;;;;;;;0.20;0.20;;;;;;;4.10;71.12;97572.38;5074632;28;20116;-71
2021/10/25 02:16:41;;;;;;;0.20;0.20;;;;;;;4.10;71.12;97582.44;5075239;28;20036;-68
2021/10/25 02:19:08;;;;;;;0.20;0.20;;;;;;;4.09;71.08;97588.91;5074909;28;20124;-70
2021/10/25 02:21:34;;;;;;;0.57;0.55;;;;;;;4.10;70.92;97591.41;5074760;28;20094;-68
2021/10/25 02:24:00;;;;;;;0.20;0.20;;;;;;;4.12;70.93;97586.59;5075239;28;20036;-69
2021/10/25 02:26:26;;;;;;;0.10;0.10;;;;;;;4.16;70.80;97582.34;5075553;28;20129;-70
2021/10/25 02:28:51;;;;;;;0.20;0.20;;;;;;;4.19;70.65;97590.06;5074891;28;20121;-69
2021/10/25 02:31:18;;;;;;;0.20;0.20;;;;;;;4.18;70.78;97591.13;5074807;28;20032;-71
2021/10/25 02:33:44;;;;;;;0.70;0.70;;;;;;;4.21;70.72;97587.97;5074818;28;20055;-69
2021/10/25 02:36:10;;;;;;;0.20;0.20;;;;;;;4.24;70.60;97586.69;5075270;28;20078;-70
2021/10/25 02:38:37;;;;;;;0.40;0.40;;;;;;;4.27;70.57;97583.53;5074739;28;20036;-69
2021/10/25 02:41:04;;;;;;;0.20;0.20;;;;;;;4.32;70.58;97597.25;5074098;28;20040;-70
2021/10/25 02:43:30;;;;;;;2.72;0.73;;;;;;;4.36;70.32;97594.94;5073558;28;20115;-70
2021/10/25 02:45:57;;;;;;;0.20;0.20;;;;;;;4.37;70.34;97596.56;5074049;28;20071;-70
2021/10/25 02:48:25;;;;;;;0.25;0.25;;;;;;;4.36;70.38;97603.91;5073267;28;20036;-70
2021/10/25 02:50:52;;;;;;;0.20;0.20;;;;;;;4.35;70.29;97595.97;5073755;28;20032;-71
2021/10/25 02:53:18;;;;;;;0.30;0.30;;;;;;;4.33;70.41;97607.06;5073312;28;20101;-73
2021/10/25 02:55:43;;;;;;;0.50;0.50;;;;;;;4.32;70.40;97605.41;5072786;28;20037;-71
2021/10/25 02:58:09;;;;;;;0.40;0.40;;;;;;;4.29;70.44;97613.19;5072896;28;20056;-70
2021/10/25 03:00:35;;;;;;;0.20;0.20;;;;;;;4.29;70.39;97619.44;5071957;28;20040;-69
2021/10/25 03:03:01;;;;;;;0.40;0.40;;;;;;;4.28;70.43;97627.81;5072668;28;20657;-70
2021/10/25 03:05:28;;;;;;;0.20;0.20;;;;;;;4.27;70.55;97628.88;5071595;28;20048;-71
2021/10/25 03:07:54;;;;;;;0.22;0.22;;;;;;;4.28;70.51;97638.69;5071467;28;20028;-69
2021/10/25 03:10:19;;;;;;;0.30;0.30;;;;;;;4.28;70.49;97636.78;5069361;28;20028;-69
2021/10/25 03:12:46;;;;;;;0.20;0.20;;;;;;;4.27;70.49;97628.88;5071692;28;20024;-70
2021/10/25 03:15:13;;;;;;;0.30;0.30;;;;;;;4.25;70.61;97634.53;5071992;28;20391;-71
2021/10/25 03:17:38;;;;;;;0.30;0.30;;;;;;;4.24;70.54;97629.31;5070075;28;20016;-70
2021/10/25 03:20:05;;;;;;;0.20;0.20;;;;;;;4.22;70.59;97615.94;5071641;28;20526;-70
2021/10/25 03:22:31;;;;;;;0.20;0.20;;;;;;;4.20;70.54;97618.06;5071612;28;20032;-71
2021/10/25 03:24:58;;;;;;;0.20;0.20;;;;;;;4.19;70.62;97616.41;5071539;28;20043;-69
2021/10/25 03:27:26;;;;;;;0.20;0.20;;;;;;;4.18;70.54;97615.59;5071560;28;20059;-75
2021/10/25 03:29:52;;;;;;;0.20;0.20;;;;;;;4.16;70.44;97617.66;5070975;28;20245;-72
2021/10/25 03:32:18;;;;;;;0.22;0.22;;;;;;;4.07;70.81;97624.44;5071251;28;20144;-71
2021/10/25 03:34:44;;;;;;;0.20;0.20;;;;;;;3.94;71.03;97622.66;5070963;28;20071;-71
2021/10/25 03:37:10;;;;;;;0.30;0.30;;;;;;;3.86;71.32;97640.06;5071201;28;20040;-72
2021/10/25 03:39:38;;;;;;;0.35;0.35;;;;;;;3.86;71.32;97636.53;5071155;28;20036;-71
2021/10/25 03:42:10;;;;;;;0.35;0.35;;;;;;;3.91;71.18;97636.69;5071244;28;20138;-71
2021/10/25 03:44:47;;;;;;;0.40;0.40;;;;;;;3.99;71.05;97644.56;5071712;28;20060;-70
2021/10/25 03:47:19;;;;;;;0.22;0.22;;;;;;;4.09;70.85;97646.78;5071544;28;20031;-73
2021/10/25 03:49:56;;;;;;;0.98;0.40;;;;;;;4.15;70.69;97647.78;5068350;28;20033;-72
2021/10/25 03:55:22;;;;;;;0.20;0.20;;;;;;;4.06;70.81;97633.66;5068162;28;20093;-72
2021/10/25 04:00:35;;;;;;;0.30;0.30;;;;;;;3.94;71.10;97638.16;5068662;28;20032;-72
2021/10/25 04:30:20;;;;;;;0.30;0.30;;;;;;;4.33;69.95;97660.59;5072036;28;20478;-74
2021/10/25 04:32:47;;;;;;;0.57;0.40;;;;;;;4.36;69.85;97660.16;5072735;28;20119;-72
2021/10/25 04:35:13;;;;;;;0.40;0.30;;;;;;;4.36;69.96;97671.03;5073051;28;20066;-72
2021/10/25 04:37:39;;;;;;;0.22;0.22;;;;;;;4.34;70.05;97671.25;5072863;28;20035;-73
2021/10/25 04:40:05;;;;;;;0.32;0.32;;;;;;;4.50;69.80;97671.72;5071514;28;20036;-72
2021/10/25 04:42:33;;;;;;;0.30;0.30;;;;;;;4.72;69.21;97674.84;5072498;28;20033;-73
2021/10/25 04:44:59;;;;;;;0.40;0.40;;;;;;;4.95;68.81;97667.91;5072301;28;20028;-73
2021/10/25 04:47:25;;;;;;;0.40;0.40;;;;;;;4.99;68.78;97672.69;5073645;28;20024;-73
2021/10/25 04:49:51;;;;;;;0.20;0.20;;;;;;;4.92;69.05;97663.75;5075119;28;20036;-76
2021/10/25 04:52:16;;;;;;;0.20;0.20;;;;;;;4.81;69.27;97665.31;5074281;28;20028;-69
2021/10/25 04:54:43;;;;;;;1.45;0.30;;;;;;;4.82;69.39;97663.47;5074657;28;20065;-70
2021/10/25 04:57:09;;;;;;;0.70;0.40;;;;;;;4.87;69.30;97666.31;5075010;28;20029;-70
2021/10/25 04:59:36;;;;;;;0.65;0.35;;;;;;;4.85;69.37;97671.16;5072631;28;20028;-70
2021/10/25 05:02:03;;;;;;;0.35;0.35;;;;;;;4.85;69.42;97673.88;5073633;28;20402;-73
2021/10/25 05:04:30;;;;;;;0.70;0.40;;;;;;;4.93;69.33;97680.91;5076042;28;20062;-72
2021/10/25 05:06:56;;;;;;;0.22;0.22;;;;;;;4.98;69.08;97684.63;5075908;28;20504;-74
2021/10/25 05:09:22;;;;;;;0.20;0.20;;;;;;;5.07;69.03;97682.44;5076914;28;20037;-72
2021/10/25 05:11:47;;;;;;;0.40;0.40;;;;;;;5.07;69.03;97687.88;5078297;28;20399;-73
2021/10/25 05:14:13;;;;;;;0.50;0.50;;;;;;;5.05;69.10;97676.34;5076306;28;20033;-73
2021/10/25 05:16:39;;;;;;;0.40;0.40;;;;;;;5.11;69.17;97669.19;5075991;28;20055;-76
2021/10/25 05:19:05;;;;;;;0.30;0.30;;;;;;;5.15;69.08;97684.00;5079672;28;20037;-73
2021/10/25 05:21:32;;;;;;;0.30;0.30;;;;;;;5.18;69.01;97673.50;5077352;28;20032;-72
2021/10/25 05:23:58;;;;;;;0.43;0.40;;;;;;;5.28;68.79;97683.00;5058057;28;20041;-72
2021/10/25 05:26:24;;;;;;;0.40;0.40;;;;;;;5.27;68.88;97684.91;5077651;28;20057;-72
2021/10/25 05:28:50;;;;;;;0.20;0.20;;;;;;;5.24;68.98;97688.91;5090796;28;20063;-72
2021/10/25 05:31:16;;;;;;;0.20;0.20;;;;;;;5.27;68.99;97682.19;5073878;28;20044;-74
2021/10/25 05:33:42;;;;;;;0.20;0.20;;;;;;;5.36;68.74;97683.53;5075136;28;20043;-74
2021/10/25 05:36:09;;;;;;;0.20;0.20;;;;;;;5.45;68.56;97678.59;5073404;28;20037;-73
2021/10/25 05:38:37;;;;;;;0.30;0.30;;;;;;;5.54;68.22;97688.13;5075347;28;20529;-72
2021/10/25 05:41:03;;;;;;;0.30;0.30;;;;;;;5.54;68.27;97693.56;5074923;28;20028;-73
2021/10/25 05:43:29;;;;;;;0.10;0.10;;;;;;;5.48;68.65;97699.94;5076440;28;20530;-74
2021/10/25 05:45:56;;;;;;;0.32;0.30;;;;;;;5.42;68.59;97707.13;5075578;28;20457;-74
2021/10/25 05:48:22;;;;;;;0.20;0.20;;;;;;;5.40;68.86;97719.28;5075749;28;20041;-75
2021/10/25 05:50:47;;;;;;;0.20;0.20;;;;;;;5.39;68.99;97713.03;5076596;28;20028;-74
2021/10/25 05:53:14;;;;;;;0.70;0.65;;;;;;;5.36;68.97;97707.19;5074552;28;20035;-72
2021/10/25 05:55:43;;;;;;;0.20;0.20;;;;;;;5.42;68.93;97690.78;5075893;28;20070;-73
2021/10/25 05:58:22;;;;;;;0.32;0.32;;;;;;;5.55;68.57;97695.22;5076184;28;20036;-73
2021/10/25 06:00:55;;;;;;;0.20;0.20;;;;;;;5.67;68.11;97691.69;5074808;28;20029;-75
2021/10/25 06:03:23;;;;;;;0.20;0.20;;;;;;;5.78;67.82;97689.03;5074651;28;20028;-73
2021/10/25 06:05:50;;;;;;;0.25;0.25;;;;;;;5.90;67.54;97697.25;5075943;28;20446;-73
2021/10/25 06:08:16;;;;;;;0.20;0.20;;;;;;;5.91;67.47;97698.91;5074819;28;20036;-72
2021/10/25 06:10:42;;;;;;;0.20;0.20;;;;;;;5.88;67.54;97709.44;5075148;28;20043;-72
2021/10/25 06:13:10;;;;;;;0.30;0.30;;;;;;;5.86;67.55;97711.56;5074314;28;20047;-72
2021/10/25 06:15:41;;;;;;;0.20;0.20;;;;;;;5.83;67.72;97704.69;5073992;28;20491;-73
2021/10/25 06:18:08;;;;;;;1.00;0.40;;;;;;;5.84;67.52;97700.88;5075021;28;20039;-72
2021/10/25 06:20:39;;;;;;;2.22;0.73;;;;;;;5.83;67.56;97707.41;5074257;28;20131;-72
2021/10/25 06:23:12;;;;;;;0.40;0.40;;;;;;;5.82;67.62;97705.75;5073935;28;20063;-73
2021/10/25 06:25:39;;;;;;;0.20;0.20;;;;;;;5.77;67.62;97713.78;5074499;28;20119;-71
2021/10/25 06:28:06;;;;;;;0.20;0.20;;;;;;;5.74;67.71;97709.63;5074566;28;20043;-72
2021/10/25 06:30:33;;;;;;;0.20;0.20;;;;;;;5.73;67.57;97718.03;5074564;28;20063;-72
2021/10/25 06:33:02;;;;;;;0.20;0.20;;;;;;;5.70;67.88;97713.06;5073100;28;20033;-72
2021/10/25 06:35:28;;;;;;;0.63;0.63;;;;;;;5.71;67.80;97709.25;5075004;28;20032;-73
2021/10/25 06:38:09;;;;;;;0.38;0.38;;;;;;;5.76;67.71;97706.69;5075217;28;20033;-74
2021/10/25 06:40:35;;;;;;;0.80;0.63;;;;;;;5.78;67.62;97701.81;5073695;28;20040;-74
2021/10/25 06:43:01;;;;;;;0.20;0.20;;;;;;;5.87;67.51;97702.31;5075152;28;20453;-73
2021/10/25 06:45:27;;;;;;;0.25;0.25;;;;;;;5.88;67.35;97699.38;5074514;28;20113;-73
2021/10/25 06:47:54;;;;;;;0.20;0.20;;;;;;;5.91;67.18;97695.34;5074795;28;20040;-74
2021/10/25 06:50:25;;;;;;;0.20;0.20;;;;;;;5.99;67.16;97700.50;5075072;28;20032;-73
2021/10/25 06:53:05;;;;;;;0.20;0.20;;;;;;;6.08;67.05;97709.16;5073628;28;20036;-72
2021/10/25 06:55:33;;;;;;;0.20;0.20;;;;;;;6.11;66.79;97703.25;5072989;28;20040;-73
2021/10/25 06:57:59;;;;;;;0.20;0.20;;;;;;;6.12;66.92;97699.47;5072997;28;20028;-72
2021/10/25 07:00:26;;;;;;;0.20;0.20;;;;;;;6.18;66.81;97712.16;5071949;28;20048;-72
2021/10/25 07:02:52;;;;;;;0.20;0.20;;;;;;;6.14;66.70;97708.25;5071342;28;20475;-73
2021/10/25 07:05:18;;;;;;;0.30;0.30;;;;;;;6.06;67.02;97695.78;5054791;28;20052;-72
2021/10/25 07:07:45;;;;;;;0.40;0.40;;;;;;;6.01;67.22;97703.84;5072256;28;20048;-71
2021/10/25 07:10:11;;;;;;;0.30;0.30;;;;;;;6.00;67.26;97707.59;5072435;28;20067;-71
2021/10/25 07:12:37;;;;;;;0.40;0.40;;;;;;;6.02;67.24;97704.66;5072871;28;20060;-72
2021/10/25 07:15:04;;;;;;;0.20;0.20;;;;;;;6.07;67.10;97702.06;5069160;28;20150;-71
2021/10/25 08:01:12;;;;;;;0.20;0.20;;;;;;;4.92;69.08;97707.28;5075594;28;20039;-70
2021/10/25 08:04:25;;;;;;;0.30;0.30;;;;;;;4.99;68.72;97701.75;5075802;28;20060;-70
2021/10/25 08:11:31;;;;;;;0.20;0.20;;;;;;;5.23;67.96;97706.28;5075992;28;20060;-70
2021/10/25 08:14:03;;;;;;;0.20;0.20;;;;;;;5.34;67.82;97709.31;5075871;28;20107;-70
2021/10/25 08:16:50;;;;;;;0.20;0.20;;;;;;;5.46;67.66;97703.94;5075199;28;20391;-71
2021/10/25 08:19:24;;;;;;;0.20;0.20;;;;;;;5.50;67.48;97697.78;5076026;28;20136;-71
2021/10/25 08:21:52;;;;;;;0.20;0.20;;;;;;;5.51;67.54;97704.09;5075088;28;20035;-71
2021/10/25 08:24:17;;;;;;;0.30;0.30;;;;;;;5.57;67.35;97703.97;5081905;28;20036;-70
2021/10/25 08:26:45;;;;;;;1.10;0.30;;;;;;;5.60;67.37;97703.53;5077264;28;20032;-72
2021/10/25 08:29:12;;;;;;;0.20;0.20;;;;;;;5.59;67.42;97699.16;5084019;28;20054;-71
2021/10/25 08:31:39;;;;;;;0.20;0.20;;;;;;;5.57;67.57;97719.50;5081551;28;20096;-71
2021/10/25 08:39:46;;;;;;;0.30;0.30;;;;;;;5.31;68.27;97715.22;5079595;28;20089;-71
2021/10/25 08:42:11;;;;;;;0.20;0.20;;;;;;;5.25;68.44;97711.50;5067639;28;20083;-73
2021/10/25 08:44:39;;;;;;;0.20;0.20;;;;;;;5.30;68.31;97705.38;5075968;28;20036;-75
2021/10/25 08:47:05;;;;;;;0.35;0.35;;;;;;;5.32;68.25;97709.53;5075717;28;20502;-72
2021/10/25 08:49:31;;;;;;;0.20;0.20;;;;;;;5.34;68.32;97710.13;5076115;28;20128;-73
2021/10/25 08:51:59;;;;;;;0.30;0.30;;;;;;;5.43;68.15;97705.22;5074640;28;20064;-71
2021/10/25 08:54:25;;;;;;;0.20;0.20;;;;;;;5.56;67.86;97710.47;5075488;28;20036;-72
2021/10/25 08:56:50;;;;;;;0.32;0.32;;;;;;;5.72;67.51;97700.03;5075136;28;20032;-71
2021/10/25 08:59:16;;;;;;;0.63;0.63;;;;;;;5.84;67.26;97703.63;5073710;28;20148;-71
2021/10/25 09:01:42;;;;;;;0.20;0.20;;;;;;;5.91;67.37;97707.06;5075036;28;20029;-74
2021/10/25 09:04:12;;;;;;;0.22;0.22;;;;;;;5.92;67.46;97707.94;5074163;28;20418;-73
2021/10/25 09:06:57;;;;;;;0.30;0.30;;;;;;;5.88;67.68;97704.81;5074970;28;20081;-72
2021/10/25 09:09:23;;;;;;;;;;;;;;;5.83;67.83;97707.41;5075896;28;20085;-72
2021/10/25 09:12:15;;;;;;;0.30;0.30;;;;;;;5.91;67.67;97698.91;5075102;28;20087;-72
2021/10/25 09:14:42;;;;;;;0.22;0.22;;;;;;;6.06;67.44;97709.41;5070433;28;20051;-71
2021/10/25 09:17:09;;;;;;;0.20;0.20;;;;;;;6.19;66.98;97705.66;5075430;28;20032;-72
2021/10/25 09:19:37;;;;;;;0.32;0.32;;;;;;;6.25;66.90;97701.97;5075009;28;20037;-72
2021/10/25 09:22:08;;;;;;;0.63;0.63;;;;;;;6.29;67.15;97700.44;5074832;28;20089;-71
2021/10/25 09:24:35;;;;;;;0.38;0.38;;;;;;;6.26;67.18;97706.38;5074453;28;20032;-71
2021/10/25 09:27:05;;;;;;;0.20;0.20;;;;;;;6.23;67.28;97701.41;5074589;28;20096;-73
2021/10/25 09:29:35;;;;;;;0.30;0.30;;;;;;;6.16;67.49;97695.22;5075112;28;20043;-75
2021/10/25 09:32:10;;;;;;;0.30;0.30;;;;;;;6.05;67.70;97702.31;5074917;28;20141;-75
2021/10/25 09:34:53;;;;;;;0.30;0.30;;;;;;;5.90;68.14;97705.44;5075910;28;20442;-74
2021/10/25 09:37:27;;;;;;;0.43;0.38;;;;;;;5.83;68.53;97696.53;5075365;28;20036;-75
2021/10/25 09:39:56;;;;;;;0.22;0.22;;;;;;;5.86;68.25;97696.06;5071039;28;20032;-74
2021/10/25 09:45:37;;;;;;;0.30;0.30;;;;;;;5.97;67.79;97695.28;5071016;28;20037;-76
2021/10/25 09:51:01;;;;;;;0.20;0.20;;;;;;;5.91;68.07;97690.72;5073613;28;20403;-74
2021/10/25 09:53:29;;;;;;;0.35;0.30;;;;;;;5.86;67.98;97685.16;5071106;28;20037;-73
2021/10/25 09:55:55;;;;;;;0.20;0.20;;;;;;;5.81;68.01;97685.00;5075021;28;20036;-72
2021/10/25 09:58:25;;;;;;;0.15;0.15;;;;;;;5.78;67.92;97690.94;5069484;28;20044;-73
2021/10/25 10:00:51;;;;;;;0.20;0.20;;;;;;;5.73;68.06;97686.19;5071289;28;20043;-73
2021/10/25 10:03:19;;;;;;;0.30;0.30;;;;;;;5.65;68.47;97678.31;5075618;28;20463;-73
2021/10/25 10:05:45;;;;;;;0.20;0.20;;;;;;;5.65;68.27;97677.50;5073718;28;20028;-73
2021/10/25 10:08:11;;;;;;;0.20;0.20;;;;;;;5.65;68.16;97677.50;5073528;28;20039;-72
2021/10/25 10:10:43;;;;;;;0.35;0.25;;;;;;;5.66;68.19;97674.53;5073594;28;20044;-73
2021/10/25 10:13:12;;;;;;;0.40;0.40;;;;;;;5.65;68.12;97672.88;5072000;28;20441;-73
2021/10/25 10:15:41;;;;;;;0.20;0.20;;;;;;;5.61;68.07;97675.25;5072270;28;20040;-74
2021/10/25 10:18:13;;;;;;;0.20;0.20;;;;;;;5.56;68.20;97675.09;5072746;28;20054;-71
2021/10/25 10:20:41;;;;;;;0.20;0.20;;;;;;;5.48;68.33;97675.41;5071567;28;20040;-73
2021/10/25 10:23:13;;;;;;;0.20;0.20;;;;;;;5.48;68.49;97669.13;5067614;28;20045;-73
2021/10/25 10:25:53;;;;;;;0.22;0.22;;;;;;;5.51;68.29;97666.78;5068583;28;20135;-72
2021/10/25 10:28:40;;;;;;;0.43;0.22;;;;;;;5.57;67.96;97660.41;5070511;28;20032;-71
2021/10/25 10:31:10;;;;;;;0.20;0.20;;;;;;;5.58;67.97;97672.13;5071163;28;20089;-74
2021/10/25 10:33:41;;;;;;;0.20;0.20;;;;;;;5.58;67.89;97672.13;5073431;28;20078;-74
2021/10/25 10:36:13;;;;;;;0.40;0.40;;;;;;;5.57;68.02;97659.59;5071828;28;20479;-75
2021/10/25 10:38:44;;;;;;;0.32;0.32;;;;;;;5.53;68.09;97659.22;5069600;28;20433;-72
2021/10/25 10:41:10;;;;;;;0.38;0.38;;;;;;;5.53;67.95;97659.22;5069879;28;20047;-75
2021/10/25 10:43:36;;;;;;;0.57;0.50;;;;;;;5.57;67.97;97654.97;5070679;28;20119;-75
2021/10/25 10:46:07;;;;;;;0.30;0.30;;;;;;;5.60;67.70;97643.63;5072393;28;20459;-73
2021/10/25 10:48:38;;;;;;;0.30;0.30;;;;;;;5.65;67.61;97650.25;5072065;28;20036;-74
2021/10/25 10:51:11;;;;;;;0.60;0.60;;;;;;;5.67;67.85;97646.25;5071515;28;20066;-73
2021/10/25 10:53:45;;;;;;;0.17;0.17;;;;;;;5.69;67.61;97644.13;5072672;28;20033;-74
2021/10/25 10:56:21;;;;;;;;;;;;;;;5.72;67.45;97646.38;5074675;28;20576;-74
2021/10/25 11:01:14;;;;;;;7.13;0.80;;;;;;;5.53;67.98;97647.50;5078582;28;20033;-75
2021/10/25 11:03:40;;;;;;;0.40;0.40;;;;;;;5.52;67.81;97640.38;5079259;28;20139;-73
2021/10/25 11:06:11;;;;;;;0.40;0.40;;;;;;;5.54;67.90;97638.28;5071734;28;20413;-73
2021/10/25 11:08:44;;;;;;;0.20;0.20;;;;;;;5.54;67.94;97641.81;5072318;28;20040;-75
2021/10/25 11:11:21;;;;;;;0.20;0.20;;;;;;;5.51;67.86;97639.56;5070684;28;20032;-75
2021/10/25 11:14:01;;;;;;;0.20;0.20;;;;;;;5.46;68.00;97635.88;5068189;28;20513;-75
2021/10/25 11:19:04;;;;;;;0.20;0.20;;;;;;;5.45;68.05;97629.59;5070844;28;20086;-72
2021/10/25 11:21:38;;;;;;;0.20;0.20;;;;;;;5.44;68.22;97636.91;5070934;28;20080;-72
2021/10/25 11:24:08;;;;;;;0.22;0.22;;;;;;;5.44;67.88;97631.47;5070338;28;20059;-73
2021/10/25 11:26:56;;;;;;;0.20;0.20;;;;;;;5.46;67.99;97631.25;5070492;28;20097;-74
2021/10/25 11:29:29;;;;;;;0.20;0.20;;;;;;;5.49;68.05;97636.25;5074940;28;20549;-73
2021/10/25 11:31:58;;;;;;;0.30;0.30;;;;;;;5.52;67.73;97630.34;5072744;28;20451;-74
2021/10/25 11:34:27;;;;;;;0.40;0.40;;;;;;;5.48;67.76;97629.13;5074684;28;20036;-74
2021/10/25 11:37:05;;;;;;;1.08;0.35;;;;;;;5.35;67.95;97624.69;5074108;28;20032;-72
2021/10/25 11:39:50;;;;;;;0.30;0.30;;;;;;;5.30;68.20;97631.88;5074111;28;20432;-74
2021/10/25 11:42:19;;;;;;;0.20;0.20;;;;;;;5.26;68.02;97615.19;5075026;28;20079;-75
2021/10/25 11:44:53;;;;;;;0.35;0.30;;;;;;;5.23;68.08;97621.94;5073151;28;20446;-73
2021/10/25 11:47:22;;;;;;;0.20;0.20;;;;;;;5.17;68.05;97625.56;5076168;28;20037;-72
2021/10/25 11:49:49;;;;;;;0.15;0.15;;;;;;;5.12;67.80;97625.41;5068735;28;20044;-76
2021/10/25 11:52:16;;;;;;;0.20;0.20;;;;;;;5.08;68.02;97622.34;5078469;28;20054;-73
2021/10/25 11:54:54;;;;;;;0.20;0.20;;;;;;;5.08;68.12;97614.16;5076447;28;20040;-77
2021/10/25 11:57:23;;;;;;;0.20;0.20;;;;;;;5.05;67.92;97624.66;5075418;28;20119;-77
2021/10/25 12:00:04;;;;;;;0.20;0.20;;;;;;;5.01;67.97;97618.88;5074493;28;20048;-72
2021/10/25 12:02:31;;;;;;;0.20;0.20;;;;;;;4.99;67.90;97617.41;5074000;28;20036;-72
2021/10/25 12:04:57;;;;;;;0.20;0.20;;;;;;;4.97;67.99;97622.28;5073910;28;20079;-73
2021/10/25 12:07:23;;;;;;;0.20;0.20;;;;;;;4.96;67.93;97621.44;5074008;28;20033;-72
2021/10/25 12:10:00;;;;;;;0.38;0.30;;;;;;;4.97;67.94;97614.94;5073615;28;20364;-76
2021/10/25 12:12:26;;;;;;;0.30;0.30;;;;;;;4.95;67.87;97616.22;5074007;28;20060;-74
2021/10/25 12:15:03;;;;;;;2.20;0.38;;;;;;;4.98;67.95;97613.88;5073686;28;20502;-71
2021/10/25 12:17:36;;;;;;;0.43;0.43;;;;;;;5.00;68.08;97613.66;5074123;28;20047;-73
2021/10/25 12:20:08;;;;;;;0.20;0.20;;;;;;;4.96;68.05;97615.16;5073616;28;20172;-73
2021/10/25 12:22:35;;;;;;;0.30;0.30;;;;;;;4.87;68.09;97618.22;5073934;28;20032;-72
2021/10/25 12:25:02;;;;;;;0.32;0.32;;;;;;;4.78;68.36;97616.00;5073486;28;20414;-79
2021/10/25 12:27:42;;;;;;;0.40;0.40;;;;;;;4.71;68.59;97625.09;5076489;28;20037;-76
2021/10/25 12:30:13;;;;;;;0.20;0.20;;;;;;;4.66;68.81;97615.94;5075772;28;20370;-75
2021/10/25 12:32:51;;;;;;;0.32;0.32;;;;;;;4.61;68.92;97618.47;5075673;28;20039;-74
2021/10/25 12:35:17;;;;;;;0.20;0.20;;;;;;;4.54;69.00;97624.84;5075996;28;20077;-73
2021/10/25 12:37:43;;;;;;;1.30;0.65;;;;;;;4.49;69.17;97621.13;5077388;28;20477;-71
2021/10/25 12:40:17;;;;;;;0.20;0.20;;;;;;;4.42;69.27;97618.50;5073304;28;20044;-71
2021/10/25 12:42:43;;;;;;;;;;;;;;;4.37;69.39;97619.16;5073542;28;20033;-69
2021/10/25 12:45:18;;;;;;;0.20;0.20;;;;;;;4.28;69.51;97614.22;5074549;28;19916;-72
2021/10/25 12:47:44;;;;;;;;;;;;;;;4.23;69.53;97616.81;5075570;28;20483;-73
2021/10/25 12:50:14;;;;;;;0.20;0.20;;;;;;;4.15;69.72;97620.63;5077697;28;19969;-75
2021/10/25 12:52:42;;;;;;;0.40;0.40;;;;;;;4.12;69.54;97616.47;5078559;28;20085;-73
2021/10/25 12:55:08;;;;;;;0.20;0.20;;;;;;;4.09;69.81;97610.66;5073818;28;20172;-74
2021/10/25 12:57:36;;;;;;;0.20;0.20;;;;;;;4.07;69.83;97619.03;5072609;28;20082;-74
2021/10/25 13:00:12;;;;;;;0.20;0.20;;;;;;;4.00;69.82;97619.06;5072580;28;20491;-76
2021/10/25 13:02:49;;;;;;;0.20;0.20;;;;;;;3.95;70.05;97627.06;5072838;28;20033;-78
2021/10/25 13:05:22;;;;;;;0.20;0.20;;;;;;;3.87;70.31;97632.75;5073051;28;20418;-74
2021/10/25 13:07:54;;;;;;;0.20;0.20;;;;;;;3.84;70.29;97630.47;5073545;28;20065;-77
2021/10/25 13:10:27;;;;;;;0.20;0.20;;;;;;;3.82;70.40;97635.31;5072752;28;20078;-77
2021/10/25 13:12:54;;;;;;;0.20;0.20;;;;;;;3.79;70.31;97638.47;5072521;28;20063;-74
2021/10/25 13:15:23;;;;;;;0.57;0.43;;;;;;;3.73;70.65;97637.47;5071320;28;20081;-72
2021/10/25 13:17:50;;;;;;;0.43;0.43;;;;;;;3.70;70.62;97629.75;5087717;28;20032;-82
2021/10/25 13:20:20;;;;;;;0.30;0.30;;;;;;;3.73;70.60;97628.50;5072178;28;20028;-75
2021/10/25 13:22:46;;;;;;;0.28;0.28;;;;;;;3.68;70.63;97640.00;5072170;28;20433;-83
2021/10/25 13:25:12;;;;;;;0.30;0.30;;;;;;;3.61;70.86;97634.63;5072841;28;20028;-77
2021/10/25 13:27:39;;;;;;;1.35;0.73;;;;;;;3.51;70.84;97643.22;5071966;28;20177;-78
2021/10/25 13:30:07;;;;;;;0.20;0.20;;;;;;;3.43;70.93;97637.22;5072254;28;20818;-80